Archival Weather

Chicago O'Hare International

Chicago, Illinois (KORD)

Report from: Sunday, November 19, 2023 7:51 AM CST
Current time: Monday, July 22, 2024 5:43 AM CDT

Current weather – Weather history – Daily summaries
Weather forecast

Temperature4.4°C (39.9°F)
Wind chill2.6°C (36.7°F)
Dew point-1.1°C (30.0°F)
Winds 4 kts (2.1 m/s, 4.6 mph) North-Northwest (340°)
Visibility10 mi. (16.1 km)
Clouds Few clouds 25,000 ft. (7,620 m)
Altimeter30.05 in.Hg (1018 mB)
Relative humidity67 %
Density altitude-1,358 ft. (-414 m)
Sea-level pressure101.8 kPa (1018 mB, 30.06 in.Hg)
Remarks Automated weather observing station with precipitation discriminator
Flight conditions Visual Meteorological Conditions
Raw dataKORD 191351Z 34004KT 10SM FEW250 04/M01 A3005 RMK AO2 SLP180 T00441011
An error has occurred. This application may no longer respond until reloaded. Reload 🗙